Flight Track Log - Related Links

Times and Time Zones

All times are in EDT time to prevent confusion due to time zone crossing. See the EJA641 flight status page for this flight to view local times or setup timezone preferences in your user account.

Time Position Orientation Groundspeed Altitude Reporting Facility
EDT Latitude Longitude Course Direction KTS MPH feet Rate Location/Type
Mon 11:42:29 AM 35.1953 -79.4247 214° Southwest 257 296 8,300  Level Washington Center
Mon 11:43:30 AM 35.1419 -79.4681 214° Southwest 254 292 11,600 3,400 Climbing Washington Center
Mon 11:44:29 AM 35.0656 -79.4997 199° South 261 300 15,100 2,800 Climbing Washington Center
Mon 11:45:30 AM 35.0019 -79.5347 204° Southwest 272 313 17,200 1,934 Climbing Washington Center
Mon 11:46:30 AM 34.9294 -79.5819 208° Southwest 284 327 19,000 1,948 Climbing Washington Center
Mon 11:48:04 AM 34.8025 -79.6564 206° Southwest 319 367 22,200 1,948 Climbing Jacksonville Center
Mon 11:49:04 AM 34.7222 -79.7025 205° Southwest 319 367 24,000 900 Climbing Jacksonville Center
Mon 11:50:04 AM 34.6317 -79.7511 204° Southwest 336 387 24,000  Level Jacksonville Center
Mon 11:51:04 AM 34.5414 -79.8075 207° Southwest 349 402 24,000  Level Jacksonville Center
Mon 11:52:04 AM 34.4489 -79.8686 209° Southwest 354 407 24,000  Level Jacksonville Center
Mon 11:53:04 AM 34.3564 -79.9222 206° Southwest 359 413 24,000  Level Jacksonville Center
Mon 11:54:04 AM 34.2658 -79.9781 207° Southwest 364 419 24,000  Level Jacksonville Center
Mon 11:55:04 AM 34.1753 -80.0286 205° Southwest 364 419 24,000  Level Jacksonville Center
Mon 11:56:04 AM 34.0847 -80.0819 206° Southwest 364 419 24,000  Level Jacksonville Center
Mon 11:57:03 AM 33.9942 -80.1347 206° Southwest 364 419 24,000  Level Jacksonville Center
Mon 11:58:04 AM 33.9033 -80.1903 207° Southwest 364 419 24,000  Level Jacksonville Center
Mon 11:59:04 AM 33.8128 -80.2406 205° Southwest 364 419 24,000  Level Jacksonville Center
Mon 12:00:04 PM 33.7200 -80.2958 206° Southwest 364 419 24,000  Level Jacksonville Center
Mon 12:01:04 PM 33.6314 -80.3483 206° Southwest 364 419 24,000  Level Jacksonville Center
Mon 12:02:04 PM 33.5386 -80.4031 206° Southwest 364 419 24,000  Level Jacksonville Center
Mon 12:03:04 PM 33.4478 -80.4556 206° Southwest 364 419 24,000 -100 Level Jacksonville Center
Mon 12:04:04 PM 33.3547 -80.5078 205° Southwest 364 419 23,800 -900 Descending Jacksonville Center
Mon 12:05:04 PM 33.2597 -80.5600 205° Southwest 369 425 22,200 -1,600 Descending Jacksonville Center
Mon 12:06:04 PM 33.1689 -80.6144 207° Southwest 369 425 20,600 -1,600 Descending Jacksonville Center
Mon 12:07:04 PM 33.0800 -80.6664 206° Southwest 369 425 19,000 -1,400 Descending Jacksonville Center
Mon 12:08:04 PM 32.9933 -80.7156 205° Southwest 358 412 17,800 -1,500 Descending Jacksonville Center
Mon 12:09:04 PM 32.9064 -80.7647 205° Southwest 358 412 16,000 -1,850 Descending Jacksonville Center
Mon 12:10:04 PM 32.8217 -80.8136 206° Southwest 353 406 14,100 -1,950 Descending Jacksonville Center
Mon 12:11:04 PM 32.7389 -80.8600 205° Southwest 341 392 12,100 -1,950 Descending Jacksonville Center
Mon 12:12:04 PM 32.6625 -80.9036 206° Southwest 319 367 10,200 -1,650 Descending Jacksonville Center
Mon 12:13:04 PM 32.6006 -80.9494 212° Southwest 289 333 8,800 -1,250 Descending Jacksonville Center
Mon 12:14:04 PM 32.5406 -80.9903 210° Southwest 272 313 7,700 -1,200 Descending Jacksonville Center
Mon 12:15:04 PM 32.4703 -81.0383 210° Southwest 272 313 6,400 -1,250 Descending Jacksonville Center
Mon 12:16:04 PM 32.4061 -81.0814 210° Southwest 272 313 5,200 -1,150 Descending Jacksonville Center
Mon 12:17:04 PM 32.3483 -81.1244 212° Southwest 261 300 4,100 -1,050 Descending Jacksonville Center
Mon 12:18:04 PM 32.2906 -81.1650 211° Southwest 248 285 3,100 -1,050 Descending Jacksonville Center
Mon 12:19:04 PM 32.2344 -81.2003 208° Southwest 248 285 2,000 -1,050 Descending Jacksonville Center
Mon 12:20:04 PM 32.1783 -81.2039 183° South 221 254 1,000 -900 Descending Jacksonville Center
Mon 12:21:04 PM 32.1386 -81.2044 181° South 177 204 200 8,500 Descending Jacksonville Center
Mon 12:22:04 PM 32.0803 -81.2081 183° South 177 204 18,000 17,800 Climbing Jacksonville Center

Login

Don't have an account? Register now (free) for customized features, flight alerts, and more!